Time,TemperatureF,DewpointF,PressureIn,WindDirection,WindDirectionDegrees,WindSpeedMPH,WindSpeedGustMPH,Humidity,HourlyPrecipIn,Conditions,Clouds,dailyrainin,SoftwareType,DateUTC
2013-07-31 00:02:00,61.0,42.0,-100.00,SE,141,3.0,4.0,49,-99.99,,,-99.99,,2013-07-31 07:02:00,
2013-07-31 00:22:00,61.0,40.0,-100.00,SE,143,2.0,3.0,46,-99.99,,,-99.99,,2013-07-31 07:22:00,
2013-07-31 00:32:00,61.0,39.0,-100.00,ESE,120,3.0,3.0,43,-99.99,,,-99.99,,2013-07-31 07:32:00,
2013-07-31 00:52:00,60.0,38.0,-100.00,North,-999,0.0,0.0,43,-99.99,,,-99.99,,2013-07-31 07:52:00,
2013-07-31 01:02:00,60.0,38.0,-100.00,North,-999,0.0,0.0,43,-99.99,,,-99.99,,2013-07-31 08:02:00,
2013-07-31 01:22:00,60.0,37.0,-100.00,North,-999,0.0,0.0,43,-99.99,,,-99.99,,2013-07-31 08:22:00,
2013-07-31 01:32:00,60.0,37.0,-100.00,North,-999,0.0,0.0,42,-99.99,,,-99.99,,2013-07-31 08:32:00,
2013-07-31 01:42:00,60.0,36.0,-100.00,SE,128,3.0,4.0,41,-99.99,,,-99.99,,2013-07-31 08:42:00,
2013-07-31 02:02:00,60.0,35.0,-100.00,SE,124,3.0,4.0,39,-99.99,,,-99.99,,2013-07-31 09:02:00,
2013-07-31 02:22:00,61.0,35.0,-100.00,ESE,114,2.0,3.0,38,-99.99,,,-99.99,,2013-07-31 09:22:00,
2013-07-31 02:43:00,62.0,38.0,-100.00,ESE,116,2.0,3.0,41,-99.99,,,-99.99,,2013-07-31 09:43:00,
2013-07-31 03:02:00,61.0,37.0,-100.00,East,97,2.0,3.0,41,-99.99,,,-99.99,,2013-07-31 10:02:00,
2013-07-31 03:12:00,61.0,37.0,-100.00,East,97,2.0,3.0,41,-99.99,,,-99.99,,2013-07-31 10:12:00,
2013-07-31 03:44:00,60.0,38.0,-100.00,North,-999,0.0,0.0,42,-99.99,,,-99.99,,2013-07-31 10:44:00,
2013-07-31 04:22:00,60.0,37.0,-100.00,North,-999,0.0,0.0,43,-99.99,,,-99.99,,2013-07-31 11:22:00,
2013-07-31 04:43:00,60.0,42.0,-100.00,North,-999,0.0,0.0,50,-99.99,,,-99.99,,2013-07-31 11:43:00,
2013-07-31 04:52:00,60.0,42.0,-100.00,North,-999,0.0,0.0,50,-99.99,,,-99.99,,2013-07-31 11:52:00,
2013-07-31 05:02:00,60.0,40.0,-100.00,North,-999,0.0,0.0,48,-99.99,,,-99.99,,2013-07-31 12:02:00,
2013-07-31 05:22:00,60.0,39.0,-100.00,North,-999,0.0,0.0,45,-99.99,,,-99.99,,2013-07-31 12:22:00,
2013-07-31 06:02:00,59.0,37.0,-100.00,North,-999,0.0,0.0,44,-99.99,,,-99.99,,2013-07-31 13:02:00,
2013-07-31 06:33:00,59.0,35.0,-100.00,North,-999,0.0,0.0,41,-99.99,,,-99.99,,2013-07-31 13:33:00,
2013-07-31 06:43:00,59.0,35.0,-100.00,North,-999,0.0,0.0,41,-99.99,,,-99.99,,2013-07-31 13:43:00,
2013-07-31 07:12:00,58.0,37.0,-100.00,North,-999,0.0,0.0,45,-99.99,,,-99.99,,2013-07-31 14:12:00,
2013-07-31 07:22:00,58.0,37.0,-100.00,North,-999,0.0,0.0,45,-99.99,,,-99.99,,2013-07-31 14:22:00,
2013-07-31 07:43:00,58.0,36.0,-100.00,North,-999,0.0,0.0,44,-99.99,,,-99.99,,2013-07-31 14:43:00,
2013-07-31 08:02:00,58.0,39.0,-100.00,North,-999,0.0,0.0,50,-99.99,,,-99.99,,2013-07-31 15:02:00,
2013-07-31 08:12:00,58.0,35.0,-100.00,North,-999,0.0,0.0,42,-99.99,,,-99.99,,2013-07-31 15:12:00,
2013-07-31 08:43:00,62.0,37.0,-100.00,North,-999,0.0,0.0,38,-99.99,,,-99.99,,2013-07-31 15:43:00,
2013-07-31 08:52:00,62.0,37.0,-100.00,North,-999,0.0,0.0,38,-99.99,,,-99.99,,2013-07-31 15:52:00,
2013-07-31 09:22:00,64.0,38.0,-100.00,North,-999,0.0,0.0,38,-99.99,,,-99.99,,2013-07-31 16:22:00,
2013-07-31 09:43:00,65.0,41.0,-100.00,North,-999,0.0,0.0,42,-99.99,,,-99.99,,2013-07-31 16:43:00,
2013-07-31 09:52:00,65.0,43.0,-100.00,North,-999,0.0,0.0,45,-99.99,,,-99.99,,2013-07-31 16:52:00,
2013-07-31 10:02:00,65.0,43.0,-100.00,North,-999,0.0,0.0,45,-99.99,,,-99.99,,2013-07-31 17:02:00,
2013-07-31 10:12:00,65.0,43.0,-100.00,North,-999,0.0,0.0,45,-99.99,,,-99.99,,2013-07-31 17:12:00,
2013-07-31 10:33:00,66.0,46.0,-100.00,North,-999,0.0,0.0,48,-99.99,,,-99.99,,2013-07-31 17:33:00,
2013-07-31 10:43:00,66.0,47.0,-100.00,North,-999,0.0,0.0,50,-99.99,,,-99.99,,2013-07-31 17:43:00,
2013-07-31 11:01:00,67.0,46.0,-100.00,WNW,298,2.0,4.0,47,-99.99,,,-99.99,,2013-07-31 18:01:00,
2013-07-31 11:12:00,67.0,44.0,-100.00,NNW,347,0.0,2.0,44,-99.99,,,-99.99,,2013-07-31 18:12:00,
2013-07-31 11:32:00,70.0,40.0,-100.00,West,280,3.0,4.0,34,-99.99,,,-99.99,,2013-07-31 18:32:00,
2013-07-31 11:43:00,70.0,40.0,-100.00,West,280,3.0,4.0,34,-99.99,,,-99.99,,2013-07-31 18:43:00,
2013-07-31 11:52:00,70.0,44.0,-100.00,NW,304,3.0,4.0,38,-99.99,,,-99.99,,2013-07-31 18:52:00,
2013-07-31 12:02:00,69.0,43.0,-100.00,WNW,301,3.0,5.0,39,-99.99,,,-99.99,,2013-07-31 19:02:00,
2013-07-31 12:11:00,69.0,43.0,-100.00,WNW,301,3.0,5.0,39,-99.99,,,-99.99,,2013-07-31 19:11:00,
2013-07-31 12:43:00,71.0,43.0,-100.00,NNW,335,1.0,4.0,36,-99.99,,,-99.99,,2013-07-31 19:43:00,
2013-07-31 12:52:00,71.0,41.0,-100.00,NW,309,3.0,4.0,34,-99.99,,,-99.99,,2013-07-31 19:52:00,
2013-07-31 13:02:00,71.0,41.0,-100.00,NW,313,3.0,5.0,34,-99.99,,,-99.99,,2013-07-31 20:02:00,
2013-07-31 13:22:00,71.0,42.0,-100.00,NW,322,2.0,5.0,35,-99.99,,,-99.99,,2013-07-31 20:22:00,
2013-07-31 13:42:00,71.0,42.0,-100.00,NW,311,3.0,4.0,35,-99.99,,,-99.99,,2013-07-31 20:42:00,
2013-07-31 13:52:00,71.0,42.0,-100.00,NW,311,3.0,4.0,35,-99.99,,,-99.99,,2013-07-31 20:52:00,
2013-07-31 14:02:00,71.0,42.0,-100.00,NW,306,3.0,5.0,34,-99.99,,,-99.99,,2013-07-31 21:02:00,
2013-07-31 14:22:00,71.0,42.0,-100.00,NW,305,2.0,3.0,35,-99.99,,,-99.99,,2013-07-31 21:22:00,
2013-07-31 14:53:00,73.0,46.0,-100.00,West,280,4.0,5.0,38,-99.99,,,-99.99,,2013-07-31 21:53:00,
2013-07-31 15:02:00,73.0,46.0,-100.00,West,280,4.0,5.0,38,-99.99,,,-99.99,,2013-07-31 22:02:00,
2013-07-31 15:32:00,73.0,41.0,-100.00,West,267,5.0,11.0,31,-99.99,,,-99.99,,2013-07-31 22:32:00,
2013-07-31 16:02:00,73.0,46.0,-100.00,WNW,284,4.0,7.0,38,-99.99,,,-99.99,,2013-07-31 23:02:00,
2013-07-31 16:11:00,73.0,46.0,-100.00,WNW,284,4.0,7.0,38,-99.99,,,-99.99,,2013-07-31 23:11:00,
2013-07-31 16:42:00,72.0,45.0,-100.00,WNW,284,5.0,7.0,38,-99.99,,,-99.99,,2013-07-31 23:42:00,
2013-07-31 17:43:00,72.0,42.0,-100.00,WNW,287,5.0,7.0,35,-99.99,,,-99.99,,2013-08-01 00:43:00,
2013-07-31 17:52:00,72.0,42.0,-100.00,WNW,284,5.0,6.0,35,-99.99,,,-99.99,,2013-08-01 00:52:00,
2013-07-31 18:02:00,71.0,44.0,-100.00,WNW,284,5.0,6.0,37,-99.99,,,-99.99,,2013-08-01 01:02:00,
2013-07-31 18:32:00,70.0,43.0,-100.00,West,281,4.0,6.0,37,-99.99,,,-99.99,,2013-08-01 01:32:00,
2013-07-31 19:02:00,69.0,45.0,-100.00,West,281,5.0,7.0,42,-99.99,,,-99.99,,2013-08-01 02:02:00,
2013-07-31 19:12:00,69.0,44.0,-100.00,West,281,5.0,6.0,41,-99.99,,,-99.99,,2013-08-01 02:12:00,
2013-07-31 19:32:00,68.0,43.0,-100.00,West,280,5.0,7.0,41,-99.99,,,-99.99,,2013-08-01 02:32:00,
2013-07-31 19:41:00,67.0,43.0,-100.00,West,280,4.0,6.0,42,-99.99,,,-99.99,,2013-08-01 02:41:00,
2013-07-31 19:43:00,68.0,42.0,-100.00,WNW,282,4.0,7.0,39,-99.99,,,-99.99,,2013-08-01 02:43:00,
2013-07-31 20:11:00,67.0,43.0,-100.00,West,280,4.0,6.0,42,-99.99,,,-99.99,,2013-08-01 03:11:00,
2013-07-31 20:22:00,67.0,43.0,-100.00,West,280,4.0,6.0,42,-99.99,,,-99.99,,2013-08-01 03:22:00,
2013-07-31 20:32:00,67.0,43.0,-100.00,West,280,4.0,6.0,42,-99.99,,,-99.99,,2013-08-01 03:32:00,
2013-07-31 21:02:00,64.0,41.0,-100.00,North,-999,-999.0,-999.0,43,-99.99,,,-99.99,,2013-08-01 04:02:00,
2013-07-31 21:12:00,64.0,41.0,-100.00,North,-999,-999.0,-999.0,43,-99.99,,,-99.99,,2013-08-01 04:12:00,
2013-07-31 21:22:00,64.0,41.0,-100.00,North,-999,-999.0,-999.0,43,-99.99,,,-99.99,,2013-08-01 04:22:00,
2013-07-31 21:52:00,63.0,43.0,-100.00,West,267,2.0,4.0,48,-99.99,,,-99.99,,2013-08-01 04:52:00,
2013-07-31 22:02:00,62.0,39.0,-100.00,WSW,239,3.0,7.0,41,-99.99,,,-99.99,,2013-08-01 05:02:00,
2013-07-31 22:12:00,62.0,39.0,-100.00,WSW,247,3.0,5.0,41,-99.99,,,-99.99,,2013-08-01 05:12:00,
2013-07-31 22:22:00,62.0,41.0,-100.00,WSW,247,3.0,5.0,45,-99.99,,,-99.99,,2013-08-01 05:22:00,
2013-07-31 22:32:00,61.0,37.0,-100.00,West,277,1.0,3.0,41,-99.99,,,-99.99,,2013-08-01 05:32:00,
2013-07-31 22:43:00,60.0,37.0,-100.00,East,88,3.0,5.0,43,-99.99,,,-99.99,,2013-08-01 05:43:00,
2013-07-31 22:53:00,59.0,37.0,-100.00,ENE,71,4.0,6.0,43,-99.99,,,-99.99,,2013-08-01 05:53:00,
2013-07-31 23:02:00,59.0,37.0,-100.00,ENE,71,4.0,6.0,43,-99.99,,,-99.99,,2013-08-01 06:02:00,
2013-07-31 23:22:00,58.0,36.0,-100.00,ENE,68,4.0,6.0,43,-99.99,,,-99.99,,2013-08-01 06:22:00,
2013-07-31 23:32:00,58.0,36.0,-100.00,ENE,76,4.0,7.0,43,-99.99,,,-99.99,,2013-08-01 06:32:00,
2013-07-31 23:52:00,57.0,36.0,-100.00,East,93,3.0,5.0,45,-99.99,,,-99.99,,2013-08-01 06:52:00,